Luis Marín

Chief Scout - Athletic Bilbao
3 Dec 2028
Sunday
Process

Personality

Adaptability (2) Ambition (16) Controversy (3) Loyalty (8) Pressure (20) Professionalism (13) Sportsmanship (12) Temperament (11)

Profile

Coaching Style Democratic
License Continental Pro
Determination 6
Man Management 10
Motivating 12
Discipline 15
Job Satisfaction
100%
Fatigue
0%
Role Chief Scout
Wage 92.3K p/w
Contract 14.03.2029

Performance

Behaviour Good
Training Effectiveness
56%
Player Development
45%
Injury Prevention
45%
Tactical Implementation
65%

Recent Events

Attended a recruitment meeting now
Attended a recruitment meeting now
Recommended a transfer target now
Assessed a player now
Assessed a player now
Assessed a player now
Assessed a player now
Observed a match now

Currently Monitoring

150
Player Club Status Ability Confidence Watched Last Observed Latest Vote
Celías Ingenthron Platense Active 109 / 125 40% 11 02.12.2028 -
Cheveyo Tsawa Club Brugge Active 132 / 134 40% 2 02.12.2028 -
Christos Mouzakitis Hull City Active 140 / 147 40% 4 02.12.2028 -
Marc Bernal Sevilla Active 145 / 158 40% 7 01.12.2028 -
Harrison Armstrong Ipswich Town Active 138 / 143 40% 3 01.12.2028 -
Salvador Blopá Wolverhampton Active 129 / 131 40% 1 01.12.2028 -
Tyler Fletcher Rotherham United Active 115 / 124 40% 6 30.11.2028 -
Tobías Andrada River Plate Active 118 / 126 40% 3 30.11.2028 -
Louis Page Leicester City Active 136 / 141 40% 1 30.11.2028 -
Kiani Inge Groningen Active 120 / 123 40% 1 29.11.2028 -
Chris Rigg West Ham United Active 141 / 148 40% 7 28.11.2028 -
Veljko Milosavljević Bournemouth Active 147 / 154 40% 4 28.11.2028 -
Daniel Banjaqui Benfica Active 131 / 135 40% 4 26.11.2028 -
Giovanni Leoni Lincoln City Active 152 / 152 40% 6 26.11.2028 -
Matias Siltanen Malmo FF Active 124 / 133 40% 4 26.11.2028 -
Axel Tape Bayer Leverkusen Active 142 / 143 40% 9 25.11.2028 -
Alejandro Almaraz NK Celje Active 113 / 124 40% 8 24.11.2028 -
Jorge Salinas Racing Santander Active 139 / 141 40% 5 23.11.2028 -
Ayyoub Bouaddi Stoke City Active 155 / 158 40% 7 23.11.2028 -
Diego León Rotherham United Active 132 / 130 40% 8 22.11.2028 -
Andrija Bulatović Chamois Niortais Active 138 / 138 40% 2 19.11.2028 -
Trey Nyoni Rotherham United Active 149 / 150 40% 5 17.11.2028 -
Davinchi Getafe Active 127 / 133 40% 2 12.11.2028 -
Aarón Martín Al-Qadisiyah Active 118 / 125 40% 4 10.11.2028 -
Tobías Ramírez River Plate Active 134 / 135 40% 9 02.11.2028 -
Mirza Ćatović VfB Stuttgart Active 133 / 133 40% 1 31.10.2028 -
Luka Vušković Tottenham Active 154 / 157 40% 2 30.10.2028 -
Sebastian Rodriguez Houston Dynamo Active 128 / 126 40% 3 29.10.2028 -
Buba Sangaré Elche Active 142 / 139 40% 5 26.10.2028 -
Honest Ahanor Atalanta Active 137 / 148 40% 6 23.10.2028 -
João Simões Sporting CP Active 138 / 147 40% 2 22.10.2028 -
Andrés Cuenca Como Active 122 / 125 40% 1 16.10.2028 -
Agustín Medina Lanús Active 120 / 124 40% 5 10.10.2028 -
Harry Amass Manchester United Active 144 / 153 40% 1 04.10.2028 -
Thijs Kraaijeveld USM Alger Negotiating 123 / 131 40% 5 28.08.2028 -
Ayden Heaven Portsmouth Active 145 / 153 40% 3 07.08.2028 -
Jan Bürger Northampton Town Active 121 / 125 40% 1 26.07.2028 -
Romelle Donovan Brentford Active 136 / 136 40% 5 13.06.2028 -
Babis Kostoulas Oxford United Active 147 / 147 40% 1 13.06.2028 -
Lucas Høgsberg RC Strasbourg Active 146 / 146 40% 1 07.06.2028 -
Ignasi Vilarrasa Burgos Report Ready 137 / 130 69% 1 03.06.2028 -
Kauã Moraes Flamengo Active 138 / 133 40% 1 10.01.2028 -
José Arnáiz Granada Active 130 / 132 69% 1 02.01.2028 -
Caleb Yirenkyi Coventry City Active 136 / 147 40% 5 31.12.2027 -
Josh Nichols Oldham Athletic Active 120 / 125 40% 1 31.12.2027 -
Eliás Montiel Borussia Dortmund Active 134 / 137 40% 1 21.06.2027 -
Leo Castledine Middlesbrough Active 126 / 131 40% 3 16.06.2027 -
Nestory Irankunda Watford Active 122 / 125 40% 2 16.06.2027 -
Jakub Kiwior Athletic Bilbao Active 156 / 156 69% 1 01.06.2027 -
Franculino Brighton Active 137 / 141 67% 1 01.06.2027 -
Kang-In Lee Villarreal Active 157 / 158 66% 1 01.06.2027 -
Lucas Bergvall Tottenham Active 152 / 152 40% 1 31.05.2027 -
Jeremie Frimpong Liverpool Active 166 / 160 40% 4 29.05.2027 -
Alexis Saelemaekers AC Milan Active 156 / 151 40% 1 29.05.2027 -
Kirill Glebov CSKA Moscow Active 127 / 130 40% 5 28.05.2027 -
Mateus Mané Burnley Active 131 / 141 40% 3 28.05.2027 -
Xavi Simons Tottenham Active 165 / 157 40% 8 25.05.2027 -
Álex Baena Atlético Madrid Active 160 / 160 40% 9 25.05.2027 -
Amadou Onana Aston Villa Active 154 / 156 40% 12 24.05.2027 -
Georges Mikautadze Villarreal Active 158 / 153 40% 3 24.05.2027 -
Noni Madueke Arsenal Active 162 / 155 40% 8 24.05.2027 -
Senny Mayulu Paris Saint-Germain Active 140 / 148 40% 2 24.05.2027 -
Ferran Torres Paris Saint-Germain Active 166 / 164 40% 9 23.05.2027 -
Ezekiel Kwame Alladoh Philadelphia Union Active 119 / 125 40% 1 21.05.2027 -
Jan Virgili Club Brugge Active 139 / 136 40% 8 19.05.2027 -
Jonathan Asp-Jensen Deportivo La Coruña Active 125 / 125 40% 1 19.05.2027 -
Olívio Tomé Benfica Active 113 / 115 40% 1 18.05.2027 -
Miloš Kerkez Liverpool Active 164 / 158 40% 2 17.05.2027 -
Antony Betis Active 147 / 151 40% 2 17.05.2027 -
Othmane Maamma Watford Active 118 / 129 40% 3 16.05.2027 -
Moisés Caicedo Chelsea Active 166 / 169 40% 4 13.05.2027 -
Joško Gvardiol Manchester City Active 166 / 165 40% 2 13.05.2027 Needs More Info
Callum Hudson-Odoi Nottingham Forest Active 160 / 151 40% 1 13.05.2027 -
Khvicha Kvaratskhelia Paris Saint-Germain Active 166 / 167 40% 3 12.05.2027 -
Johnny Cardoso Atlético Madrid Active 146 / 154 40% 7 11.05.2027 -
Gabriel Martinelli Arsenal Active 160 / 161 40% 5 10.05.2027 -
Sindre Walle Egeli Udinese Active 135 / 136 40% 3 10.05.2027 -
Fermín Barcelona Active 169 / 163 40% 4 10.05.2027 -
William Gomes Porto Active 139 / 147 40% 2 10.05.2027 -
Nikolaus Wurmbrand Girona Active 115 / 126 40% 1 10.05.2027 -
Carlos Espí Real Madrid Active 118 / 124 40% 1 10.05.2027 -
Bryan Mbeumo Manchester United Active 155 / 157 40% 7 07.05.2027 -
Pablo Barrios Atlético Madrid Active 159 / 160 40% 4 03.05.2027 -
Gianluca Prestianni Benfica Active 136 / 138 40% 2 03.05.2027 -
Ryan Gravenberch Liverpool Active 165 / 162 40% 8 30.04.2027 -
Savinho Tottenham Active 155 / 158 40% 8 30.04.2027 -
Jadon Sancho Manchester United Active 147 / 150 40% 6 30.04.2027 -
Pedri Barcelona Active 178 / 181 40% 11 28.04.2027 -
David Mella Deportivo La Coruña Active 140 / 131 40% 1 27.04.2027 -
Chemsdine Talbi Sunderland Active 144 / 146 40% 5 25.04.2027 -
Boubacar Kamara Aston Villa Active 162 / 164 40% 6 23.04.2027 -
Vitinha Paris Saint-Germain Active 177 / 177 40% 7 17.04.2027 -
João Neves Paris Saint-Germain Active 173 / 170 40% 2 16.04.2027 -
Matheus Cunha Manchester United Active 155 / 156 40% 7 15.04.2027 -
Tino Livramento Newcastle United Active 153 / 158 40% 3 15.04.2027 -
Gavi Barcelona Active 157 / 162 40% 7 11.04.2027 -
Amad Manchester United Active 150 / 155 40% 3 09.04.2027 -
Eduardo Lozano Botafogo Active 135 / 150 40% 1 29.03.2027 -
Malick Fofana Sunderland Active 146 / 148 40% 5 23.03.2027 -
Rocco Vata Watford Active 126 / 124 40% 6 21.03.2027 -
Ethan Williams Peterborough United Active 109 / 119 40% 1 21.03.2027 -
Anthony Gordon Barcelona Active 174 / 162 40% 5 19.03.2027 -
Oscar Schwartau Norwich City Active 115 / 132 40% 1 19.03.2027 -
Nico O'Reilly Manchester City Active 150 / 156 40% 9 15.03.2027 -
Hugo Ekitiké Liverpool Active 158 / 163 40% 2 09.03.2027 -
Mohamadou Kanté Crawley Town Active 113 / 124 40% 1 09.03.2027 -
Kobbie Mainoo Manchester United Active 149 / 156 40% 5 07.03.2027 -
Antoni Milambo Brentford Active 137 / 143 40% 2 03.03.2027 -
Dehmaine Tabibou FC Nantes Active 130 / 130 40% 1 02.03.2027 -
Iliman N'Diaye Everton Active 161 / 160 40% 1 09.02.2027 -
Rayan Cherki Manchester City Active 163 / 165 40% 1 05.02.2027 -
Elliot Anderson Manchester City Active 152 / 155 40% 1 28.01.2027 -
Enzo Barrenechea Benfica Active 147 / 148 67% 1 01.01.2027 Approve
Eduardo Camavinga Real Madrid Active 169 / 168 40% 4 30.12.2026 -
Adam Wharton Crystal Palace Active 144 / 153 40% 1 30.12.2026 -
Bazoumana Touré Newcastle United Active 129 / 145 40% 1 25.12.2026 -
Fran García Betis Active 153 / 149 40% 2 22.12.2026 -
Alex Scott Bournemouth Active 155 / 153 40% 1 22.12.2026 -
Bobby Clark Derby County Active 119 / 130 40% 5 18.12.2026 -
Maxence Lacroix Chelsea Active 155 / 146 40% 1 13.12.2026 -
Mathys Tel Tottenham Active 135 / 144 40% 2 11.12.2026 -
Carlos Romero Villarreal Active 150 / 146 40% 1 11.12.2026 -
Lautaro Vargas Unión de Santa Fe Active 126 / 125 40% 9 07.12.2026 -
Sergi Cardona KAA Gent Active 143 / 147 40% 1 07.12.2026 -
Joaquín Tobio Burgos Pachuca Active 130 / 127 40% 3 05.12.2026 -
Jeremías Merlo Gimnasia La Plata Active 108 / 129 40% 6 04.12.2026 -
Pape Guèye Villarreal Active 142 / 146 40% 2 03.12.2026 -
Curtis Jones Inter Active 152 / 157 40% 1 02.12.2026 -
Levi Colwill Chelsea Active 163 / 161 40% 1 02.12.2026 -
Tristan Degreef Anderlecht Active 127 / 122 40% 2 18.11.2026 -
Ignacio Perruzzi San Lorenzo Active 129 / 130 40% 2 10.11.2026 -
Conor Gallagher Tottenham Active 149 / 152 40% 1 09.11.2026 -
Ramiro Hernandes Belgrano Active 129 / 132 40% 5 06.11.2026 -
Robert FC Copenhagen Active 133 / 132 40% 2 05.11.2026 -
Mohau Nkota Al-Ettifaq Active 123 / 124 40% 1 03.11.2026 -
Juan Velázquez Belgrano Active 113 / 125 40% 1 03.11.2026 -
Eric García Barcelona Active 166 / 158 40% 1 30.10.2026 -
José Ángel Carmona Sevilla Active 138 / 147 40% 1 25.10.2026 -
Cristian Uribe Monaco Active 158 / 151 40% 1 17.10.2026 -
Jarrad Branthwaite Everton Active 157 / 153 40% 1 17.10.2026 -
Joel Medina Independiente Active 99 / 120 40% 4 09.10.2026 -
Alexis Mac Allister Liverpool Active 154 / 163 40% 2 08.10.2026 -
Jules Koundé Barcelona Active 161 / 155 40% 1 08.10.2026 -
Alan Forneris Racing Club Active 108 / 120 40% 3 05.10.2026 -
Jonás Luna Wanderers Active 111 / 127 40% 2 02.10.2026 -
Facundo Di Biasi Gimnasia La Plata Active 113 / 126 40% 1 30.09.2026 -
Mateo Pérez Curci Independiente Active 119 / 123 40% 2 19.09.2026 -
Amin Boudri Los Angeles Football Club Active 121 / 127 40% 1 11.09.2026 -
Tomás Aranda Boca Juniors Active 112 / 120 40% 2 09.09.2026 -
Ignacio Russo Tigre Active 130 / 120 40% 1 01.08.2026 -